sensor_id;sensor_type;location;lat;lon;timestamp;P1;durP1;ratioP1;P2;durP2;ratioP2
13483;SDS011;6814;57.786;12.080;2023-09-30T00:01:26;21.10;;;4.63;;
13483;SDS011;6814;57.786;12.080;2023-09-30T00:03:52;20.70;;;5.07;;
13483;SDS011;6814;57.786;12.080;2023-09-30T00:06:18;19.77;;;4.60;;
13483;SDS011;6814;57.786;12.080;2023-09-30T00:08:45;20.97;;;4.50;;
13483;SDS011;6814;57.786;12.080;2023-09-30T00:11:11;21.73;;;4.77;;
13483;SDS011;6814;57.786;12.080;2023-09-30T00:13:42;18.47;;;4.73;;
13483;SDS011;6814;57.786;12.080;2023-09-30T00:16:09;26.03;;;5.50;;
13483;SDS011;6814;57.786;12.080;2023-09-30T00:18:35;19.67;;;4.50;;
13483;SDS011;6814;57.786;12.080;2023-09-30T00:21:01;21.13;;;4.10;;
13483;SDS011;6814;57.786;12.080;2023-09-30T00:23:28;22.63;;;4.57;;
13483;SDS011;6814;57.786;12.080;2023-09-30T00:25:54;23.37;;;5.37;;
13483;SDS011;6814;57.786;12.080;2023-09-30T00:28:21;21.53;;;4.77;;
13483;SDS011;6814;57.786;12.080;2023-09-30T00:30:48;26.30;;;4.67;;
13483;SDS011;6814;57.786;12.080;2023-09-30T00:33:15;24.67;;;4.77;;
13483;SDS011;6814;57.786;12.080;2023-09-30T00:35:41;20.20;;;4.43;;
13483;SDS011;6814;57.786;12.080;2023-09-30T00:38:08;19.83;;;5.00;;
13483;SDS011;6814;57.786;12.080;2023-09-30T00:40:35;21.47;;;4.90;;
13483;SDS011;6814;57.786;12.080;2023-09-30T00:43:01;19.80;;;3.67;;
13483;SDS011;6814;57.786;12.080;2023-09-30T00:45:28;21.47;;;4.37;;
13483;SDS011;6814;57.786;12.080;2023-09-30T00:47:56;21.67;;;4.73;;
13483;SDS011;6814;57.786;12.080;2023-09-30T00:50:22;19.27;;;4.33;;
13483;SDS011;6814;57.786;12.080;2023-09-30T00:52:49;25.37;;;5.03;;
13483;SDS011;6814;57.786;12.080;2023-09-30T00:55:16;20.90;;;4.87;;
13483;SDS011;6814;57.786;12.080;2023-09-30T00:57:43;22.77;;;5.17;;
13483;SDS011;6814;57.786;12.080;2023-09-30T01:00:10;22.53;;;4.43;;
13483;SDS011;6814;57.786;12.080;2023-09-30T01:02:37;19.57;;;4.50;;
13483;SDS011;6814;57.786;12.080;2023-09-30T01:05:06;23.97;;;5.00;;
13483;SDS011;6814;57.786;12.080;2023-09-30T01:07:33;18.10;;;4.50;;
13483;SDS011;6814;57.786;12.080;2023-09-30T01:09:59;21.67;;;4.00;;
13483;SDS011;6814;57.786;12.080;2023-09-30T01:12:25;17.17;;;4.30;;
13483;SDS011;6814;57.786;12.080;2023-09-30T01:14:56;19.27;;;4.20;;
13483;SDS011;6814;57.786;12.080;2023-09-30T01:17:23;22.00;;;4.47;;
13483;SDS011;6814;57.786;12.080;2023-09-30T01:19:49;24.63;;;5.30;;
13483;SDS011;6814;57.786;12.080;2023-09-30T01:22:18;26.10;;;4.37;;
13483;SDS011;6814;57.786;12.080;2023-09-30T01:24:45;23.47;;;4.67;;
13483;SDS011;6814;57.786;12.080;2023-09-30T01:27:12;19.60;;;4.97;;
13483;SDS011;6814;57.786;12.080;2023-09-30T01:29:41;21.37;;;4.60;;
13483;SDS011;6814;57.786;12.080;2023-09-30T01:32:08;22.63;;;4.30;;
13483;SDS011;6814;57.786;12.080;2023-09-30T01:34:35;27.20;;;4.57;;
13483;SDS011;6814;57.786;12.080;2023-09-30T01:37:01;22.63;;;4.53;;
13483;SDS011;6814;57.786;12.080;2023-09-30T01:39:29;20.47;;;4.23;;
13483;SDS011;6814;57.786;12.080;2023-09-30T01:41:56;21.93;;;4.63;;
13483;SDS011;6814;57.786;12.080;2023-09-30T01:44:23;21.77;;;4.67;;
13483;SDS011;6814;57.786;12.080;2023-09-30T01:46:49;20.63;;;4.60;;
13483;SDS011;6814;57.786;12.080;2023-09-30T01:49:16;17.47;;;5.00;;
13483;SDS011;6814;57.786;12.080;2023-09-30T01:51:43;19.87;;;4.80;;
13483;SDS011;6814;57.786;12.080;2023-09-30T01:54:10;23.13;;;4.90;;
13483;SDS011;6814;57.786;12.080;2023-09-30T01:56:38;19.53;;;5.17;;
13483;SDS011;6814;57.786;12.080;2023-09-30T01:59:05;22.80;;;4.57;;
13483;SDS011;6814;57.786;12.080;2023-09-30T02:01:31;29.43;;;5.23;;
13483;SDS011;6814;57.786;12.080;2023-09-30T02:03:58;25.70;;;5.17;;
13483;SDS011;6814;57.786;12.080;2023-09-30T02:06:24;25.27;;;5.20;;
13483;SDS011;6814;57.786;12.080;2023-09-30T02:08:50;22.17;;;5.07;;
13483;SDS011;6814;57.786;12.080;2023-09-30T02:11:17;24.63;;;5.50;;
13483;SDS011;6814;57.786;12.080;2023-09-30T02:13:45;20.90;;;5.13;;
13483;SDS011;6814;57.786;12.080;2023-09-30T02:16:11;28.40;;;5.37;;
13483;SDS011;6814;57.786;12.080;2023-09-30T02:18:38;22.60;;;4.83;;
13483;SDS011;6814;57.786;12.080;2023-09-30T02:21:06;29.27;;;5.27;;
13483;SDS011;6814;57.786;12.080;2023-09-30T02:23:32;29.20;;;5.60;;
13483;SDS011;6814;57.786;12.080;2023-09-30T02:25:59;23.43;;;4.70;;
13483;SDS011;6814;57.786;12.080;2023-09-30T02:28:25;19.40;;;4.33;;
13483;SDS011;6814;57.786;12.080;2023-09-30T02:30:53;21.23;;;5.73;;
13483;SDS011;6814;57.786;12.080;2023-09-30T02:33:19;26.20;;;4.73;;
13483;SDS011;6814;57.786;12.080;2023-09-30T02:35:46;23.80;;;5.00;;
13483;SDS011;6814;57.786;12.080;2023-09-30T02:38:12;28.70;;;6.00;;
13483;SDS011;6814;57.786;12.080;2023-09-30T02:40:41;20.43;;;5.13;;
13483;SDS011;6814;57.786;12.080;2023-09-30T02:43:11;28.73;;;5.63;;
13483;SDS011;6814;57.786;12.080;2023-09-30T02:45:37;22.73;;;4.97;;
13483;SDS011;6814;57.786;12.080;2023-09-30T02:48:05;17.50;;;3.90;;
13483;SDS011;6814;57.786;12.080;2023-09-30T02:50:33;21.70;;;4.90;;
13483;SDS011;6814;57.786;12.080;2023-09-30T02:53:00;22.70;;;5.07;;
13483;SDS011;6814;57.786;12.080;2023-09-30T02:55:26;25.73;;;4.47;;
13483;SDS011;6814;57.786;12.080;2023-09-30T02:57:53;25.63;;;5.10;;
13483;SDS011;6814;57.786;12.080;2023-09-30T03:00:19;24.00;;;4.90;;
13483;SDS011;6814;57.786;12.080;2023-09-30T03:02:51;24.27;;;5.17;;
13483;SDS011;6814;57.786;12.080;2023-09-30T03:05:19;23.97;;;5.83;;
13483;SDS011;6814;57.786;12.080;2023-09-30T03:07:46;24.13;;;5.03;;
13483;SDS011;6814;57.786;12.080;2023-09-30T03:10:13;21.17;;;5.10;;
13483;SDS011;6814;57.786;12.080;2023-09-30T03:12:45;26.63;;;5.17;;
13483;SDS011;6814;57.786;12.080;2023-09-30T03:15:11;25.20;;;5.87;;
13483;SDS011;6814;57.786;12.080;2023-09-30T03:17:38;25.50;;;4.93;;
13483;SDS011;6814;57.786;12.080;2023-09-30T03:20:05;22.13;;;5.27;;
13483;SDS011;6814;57.786;12.080;2023-09-30T03:22:39;26.77;;;5.23;;
13483;SDS011;6814;57.786;12.080;2023-09-30T03:25:06;17.80;;;4.60;;
13483;SDS011;6814;57.786;12.080;2023-09-30T03:27:33;25.83;;;5.53;;
13483;SDS011;6814;57.786;12.080;2023-09-30T03:30:00;26.23;;;5.03;;
13483;SDS011;6814;57.786;12.080;2023-09-30T03:32:27;19.77;;;5.00;;
13483;SDS011;6814;57.786;12.080;2023-09-30T03:34:54;19.93;;;4.33;;
13483;SDS011;6814;57.786;12.080;2023-09-30T03:37:25;28.27;;;4.93;;
13483;SDS011;6814;57.786;12.080;2023-09-30T03:40:07;19.23;;;5.67;;
13483;SDS011;6814;57.786;12.080;2023-09-30T03:42:39;18.73;;;4.50;;
13483;SDS011;6814;57.786;12.080;2023-09-30T03:45:07;30.10;;;5.03;;
13483;SDS011;6814;57.786;12.080;2023-09-30T03:47:35;26.40;;;5.40;;
13483;SDS011;6814;57.786;12.080;2023-09-30T03:50:01;19.93;;;4.00;;
13483;SDS011;6814;57.786;12.080;2023-09-30T03:52:29;16.90;;;2.97;;
13483;SDS011;6814;57.786;12.080;2023-09-30T03:54:58;19.80;;;4.50;;
13483;SDS011;6814;57.786;12.080;2023-09-30T03:57:26;20.53;;;4.50;;
13483;SDS011;6814;57.786;12.080;2023-09-30T03:59:53;19.77;;;4.70;;
13483;SDS011;6814;57.786;12.080;2023-09-30T04:02:19;21.53;;;4.77;;
13483;SDS011;6814;57.786;12.080;2023-09-30T04:04:46;16.53;;;4.03;;
13483;SDS011;6814;57.786;12.080;2023-09-30T04:07:14;21.57;;;4.20;;
13483;SDS011;6814;57.786;12.080;2023-09-30T04:09:41;16.40;;;4.10;;
13483;SDS011;6814;57.786;12.080;2023-09-30T04:12:08;25.20;;;4.80;;
13483;SDS011;6814;57.786;12.080;2023-09-30T04:14:36;24.03;;;5.30;;
13483;SDS011;6814;57.786;12.080;2023-09-30T04:17:02;25.70;;;4.43;;
13483;SDS011;6814;57.786;12.080;2023-09-30T04:19:29;17.33;;;4.73;;
13483;SDS011;6814;57.786;12.080;2023-09-30T04:21:56;24.37;;;5.10;;
13483;SDS011;6814;57.786;12.080;2023-09-30T04:24:22;16.13;;;4.20;;
13483;SDS011;6814;57.786;12.080;2023-09-30T04:26:49;26.63;;;4.57;;
13483;SDS011;6814;57.786;12.080;2023-09-30T04:29:15;24.43;;;5.43;;
13483;SDS011;6814;57.786;12.080;2023-09-30T04:31:43;20.50;;;4.40;;
13483;SDS011;6814;57.786;12.080;2023-09-30T04:34:10;20.60;;;4.40;;
13483;SDS011;6814;57.786;12.080;2023-09-30T04:36:36;20.97;;;4.57;;
13483;SDS011;6814;57.786;12.080;2023-09-30T04:39:03;26.90;;;4.77;;
13483;SDS011;6814;57.786;12.080;2023-09-30T04:41:30;28.40;;;5.37;;
13483;SDS011;6814;57.786;12.080;2023-09-30T04:43:57;25.90;;;5.13;;
13483;SDS011;6814;57.786;12.080;2023-09-30T04:46:23;25.43;;;4.87;;
13483;SDS011;6814;57.786;12.080;2023-09-30T04:48:51;22.77;;;5.67;;
13483;SDS011;6814;57.786;12.080;2023-09-30T04:51:18;25.80;;;5.00;;
13483;SDS011;6814;57.786;12.080;2023-09-30T04:53:44;24.03;;;6.20;;
13483;SDS011;6814;57.786;12.080;2023-09-30T04:56:12;22.67;;;5.33;;
13483;SDS011;6814;57.786;12.080;2023-09-30T04:58:38;24.33;;;5.30;;
13483;SDS011;6814;57.786;12.080;2023-09-30T05:01:05;28.03;;;5.43;;
13483;SDS011;6814;57.786;12.080;2023-09-30T05:03:33;24.40;;;5.07;;
13483;SDS011;6814;57.786;12.080;2023-09-30T05:06:01;23.90;;;4.83;;
13483;SDS011;6814;57.786;12.080;2023-09-30T05:08:28;19.33;;;4.67;;
13483;SDS011;6814;57.786;12.080;2023-09-30T05:10:56;17.53;;;4.70;;
13483;SDS011;6814;57.786;12.080;2023-09-30T05:13:22;24.17;;;4.87;;
13483;SDS011;6814;57.786;12.080;2023-09-30T05:15:49;20.83;;;5.00;;
13483;SDS011;6814;57.786;12.080;2023-09-30T05:18:16;17.53;;;4.67;;
13483;SDS011;6814;57.786;12.080;2023-09-30T05:20:42;21.50;;;3.90;;
13483;SDS011;6814;57.786;12.080;2023-09-30T05:23:10;17.00;;;3.60;;
13483;SDS011;6814;57.786;12.080;2023-09-30T05:25:38;18.93;;;3.53;;
13483;SDS011;6814;57.786;12.080;2023-09-30T05:28:05;19.00;;;3.60;;
13483;SDS011;6814;57.786;12.080;2023-09-30T05:30:31;17.17;;;4.03;;
13483;SDS011;6814;57.786;12.080;2023-09-30T05:32:58;16.97;;;3.43;;
13483;SDS011;6814;57.786;12.080;2023-09-30T05:35:25;11.10;;;2.97;;
13483;SDS011;6814;57.786;12.080;2023-09-30T05:37:53;17.07;;;2.93;;
13483;SDS011;6814;57.786;12.080;2023-09-30T05:40:23;11.03;;;2.23;;
13483;SDS011;6814;57.786;12.080;2023-09-30T05:42:51;12.83;;;3.17;;
13483;SDS011;6814;57.786;12.080;2023-09-30T05:45:18;13.17;;;3.30;;
13483;SDS011;6814;57.786;12.080;2023-09-30T05:47:45;11.67;;;2.20;;
13483;SDS011;6814;57.786;12.080;2023-09-30T05:50:11;14.40;;;2.73;;
13483;SDS011;6814;57.786;12.080;2023-09-30T05:52:41;12.63;;;2.80;;
13483;SDS011;6814;57.786;12.080;2023-09-30T05:55:08;10.70;;;2.10;;
13483;SDS011;6814;57.786;12.080;2023-09-30T05:57:36;7.40;;;2.40;;
13483;SDS011;6814;57.786;12.080;2023-09-30T06:00:03;12.80;;;2.87;;
13483;SDS011;6814;57.786;12.080;2023-09-30T06:02:36;9.23;;;2.13;;
13483;SDS011;6814;57.786;12.080;2023-09-30T06:05:03;13.27;;;2.80;;
13483;SDS011;6814;57.786;12.080;2023-09-30T06:07:29;11.97;;;2.57;;
13483;SDS011;6814;57.786;12.080;2023-09-30T06:09:56;8.47;;;2.43;;
13483;SDS011;6814;57.786;12.080;2023-09-30T06:12:25;8.93;;;2.30;;
13483;SDS011;6814;57.786;12.080;2023-09-30T06:14:55;10.70;;;2.57;;
13483;SDS011;6814;57.786;12.080;2023-09-30T06:17:21;8.17;;;2.27;;
13483;SDS011;6814;57.786;12.080;2023-09-30T06:19:48;9.40;;;2.50;;
13483;SDS011;6814;57.786;12.080;2023-09-30T06:22:15;13.87;;;2.60;;
13483;SDS011;6814;57.786;12.080;2023-09-30T06:24:42;10.23;;;2.60;;
13483;SDS011;6814;57.786;12.080;2023-09-30T06:27:08;14.80;;;2.50;;
13483;SDS011;6814;57.786;12.080;2023-09-30T06:29:38;14.07;;;3.17;;
13483;SDS011;6814;57.786;12.080;2023-09-30T06:32:07;9.20;;;1.80;;
13483;SDS011;6814;57.786;12.080;2023-09-30T06:34:33;14.40;;;2.40;;
13483;SDS011;6814;57.786;12.080;2023-09-30T06:37:00;13.10;;;2.40;;
13483;SDS011;6814;57.786;12.080;2023-09-30T06:39:27;12.50;;;2.27;;
13483;SDS011;6814;57.786;12.080;2023-09-30T06:41:54;16.33;;;2.70;;
13483;SDS011;6814;57.786;12.080;2023-09-30T06:44:20;15.83;;;2.70;;
13483;SDS011;6814;57.786;12.080;2023-09-30T06:46:49;19.63;;;2.80;;
13483;SDS011;6814;57.786;12.080;2023-09-30T06:49:18;11.27;;;2.77;;
13483;SDS011;6814;57.786;12.080;2023-09-30T06:51:44;12.53;;;2.50;;
13483;SDS011;6814;57.786;12.080;2023-09-30T06:54:11;20.97;;;4.10;;
13483;SDS011;6814;57.786;12.080;2023-09-30T06:56:37;10.40;;;2.83;;
13483;SDS011;6814;57.786;12.080;2023-09-30T06:59:04;16.00;;;2.53;;
13483;SDS011;6814;57.786;12.080;2023-09-30T07:01:31;13.67;;;2.83;;
13483;SDS011;6814;57.786;12.080;2023-09-30T07:03:58;12.10;;;2.30;;
13483;SDS011;6814;57.786;12.080;2023-09-30T07:06:25;10.20;;;2.40;;
13483;SDS011;6814;57.786;12.080;2023-09-30T07:08:52;16.60;;;3.20;;
13483;SDS011;6814;57.786;12.080;2023-09-30T07:11:26;13.80;;;2.40;;
13483;SDS011;6814;57.786;12.080;2023-09-30T07:13:52;8.73;;;1.90;;
13483;SDS011;6814;57.786;12.080;2023-09-30T07:16:19;15.77;;;2.73;;
13483;SDS011;6814;57.786;12.080;2023-09-30T07:18:45;13.47;;;3.30;;
13483;SDS011;6814;57.786;12.080;2023-09-30T07:21:13;12.70;;;3.07;;
13483;SDS011;6814;57.786;12.080;2023-09-30T07:23:41;13.50;;;2.70;;
13483;SDS011;6814;57.786;12.080;2023-09-30T07:26:07;17.37;;;3.23;;
13483;SDS011;6814;57.786;12.080;2023-09-30T07:28:34;13.40;;;2.40;;
13483;SDS011;6814;57.786;12.080;2023-09-30T07:31:00;11.73;;;2.67;;
13483;SDS011;6814;57.786;12.080;2023-09-30T07:33:27;12.13;;;3.00;;
13483;SDS011;6814;57.786;12.080;2023-09-30T07:35:54;11.73;;;2.40;;
13483;SDS011;6814;57.786;12.080;2023-09-30T07:38:22;9.83;;;2.73;;
13483;SDS011;6814;57.786;12.080;2023-09-30T07:40:49;9.87;;;2.07;;
13483;SDS011;6814;57.786;12.080;2023-09-30T07:43:16;15.03;;;3.33;;
13483;SDS011;6814;57.786;12.080;2023-09-30T07:45:42;12.57;;;3.30;;
13483;SDS011;6814;57.786;12.080;2023-09-30T07:48:09;12.23;;;2.80;;
13483;SDS011;6814;57.786;12.080;2023-09-30T07:50:36;8.70;;;2.03;;
13483;SDS011;6814;57.786;12.080;2023-09-30T07:53:03;15.13;;;4.07;;
13483;SDS011;6814;57.786;12.080;2023-09-30T07:55:29;12.67;;;2.90;;
13483;SDS011;6814;57.786;12.080;2023-09-30T07:57:57;15.33;;;2.43;;
13483;SDS011;6814;57.786;12.080;2023-09-30T08:00:25;9.93;;;2.30;;
13483;SDS011;6814;57.786;12.080;2023-09-30T08:02:51;13.00;;;2.60;;
13483;SDS011;6814;57.786;12.080;2023-09-30T08:05:18;7.97;;;2.27;;
13483;SDS011;6814;57.786;12.080;2023-09-30T08:07:44;11.27;;;2.53;;
13483;SDS011;6814;57.786;12.080;2023-09-30T08:10:11;9.47;;;2.53;;
13483;SDS011;6814;57.786;12.080;2023-09-30T08:12:41;11.90;;;2.70;;
13483;SDS011;6814;57.786;12.080;2023-09-30T08:15:11;9.97;;;2.50;;
13483;SDS011;6814;57.786;12.080;2023-09-30T08:17:38;10.43;;;2.87;;
13483;SDS011;6814;57.786;12.080;2023-09-30T08:20:05;9.90;;;3.03;;
13483;SDS011;6814;57.786;12.080;2023-09-30T08:22:31;15.30;;;2.87;;
13483;SDS011;6814;57.786;12.080;2023-09-30T08:24:58;12.10;;;3.27;;
13483;SDS011;6814;57.786;12.080;2023-09-30T08:27:25;14.97;;;3.30;;
13483;SDS011;6814;57.786;12.080;2023-09-30T08:29:51;15.33;;;2.83;;
13483;SDS011;6814;57.786;12.080;2023-09-30T08:32:19;9.77;;;2.57;;
13483;SDS011;6814;57.786;12.080;2023-09-30T08:34:46;16.33;;;3.07;;
13483;SDS011;6814;57.786;12.080;2023-09-30T08:37:12;13.70;;;3.37;;
13483;SDS011;6814;57.786;12.080;2023-09-30T08:39:39;12.57;;;3.10;;
13483;SDS011;6814;57.786;12.080;2023-09-30T08:42:06;10.67;;;2.97;;
13483;SDS011;6814;57.786;12.080;2023-09-30T08:44:35;16.63;;;3.33;;
13483;SDS011;6814;57.786;12.080;2023-09-30T08:47:02;11.27;;;3.03;;
13483;SDS011;6814;57.786;12.080;2023-09-30T08:49:30;17.70;;;3.90;;
13483;SDS011;6814;57.786;12.080;2023-09-30T08:51:59;14.00;;;3.43;;
13483;SDS011;6814;57.786;12.080;2023-09-30T08:54:27;14.83;;;3.33;;
13483;SDS011;6814;57.786;12.080;2023-09-30T08:56:54;12.47;;;2.93;;
13483;SDS011;6814;57.786;12.080;2023-09-30T08:59:20;14.73;;;3.20;;
13483;SDS011;6814;57.786;12.080;2023-09-30T09:01:47;12.43;;;3.10;;
13483;SDS011;6814;57.786;12.080;2023-09-30T09:04:13;12.73;;;3.30;;
13483;SDS011;6814;57.786;12.080;2023-09-30T09:06:42;9.53;;;3.10;;
13483;SDS011;6814;57.786;12.080;2023-09-30T09:09:15;11.53;;;3.00;;
13483;SDS011;6814;57.786;12.080;2023-09-30T09:11:43;12.43;;;3.07;;
13483;SDS011;6814;57.786;12.080;2023-09-30T09:14:10;13.10;;;4.17;;
13483;SDS011;6814;57.786;12.080;2023-09-30T09:16:36;10.87;;;3.30;;
13483;SDS011;6814;57.786;12.080;2023-09-30T09:19:12;10.80;;;3.20;;
13483;SDS011;6814;57.786;12.080;2023-09-30T09:21:39;17.53;;;4.03;;
13483;SDS011;6814;57.786;12.080;2023-09-30T09:24:27;10.47;;;3.33;;
13483;SDS011;6814;57.786;12.080;2023-09-30T09:26:58;8.83;;;2.13;;
13483;SDS011;6814;57.786;12.080;2023-09-30T09:29:29;6.70;;;2.57;;
13483;SDS011;6814;57.786;12.080;2023-09-30T09:32:05;11.10;;;3.17;;
13483;SDS011;6814;57.786;12.080;2023-09-30T09:34:32;9.93;;;2.67;;
13483;SDS011;6814;57.786;12.080;2023-09-30T09:36:59;9.00;;;2.70;;
13483;SDS011;6814;57.786;12.080;2023-09-30T09:39:30;13.83;;;3.20;;
13483;SDS011;6814;57.786;12.080;2023-09-30T09:41:57;11.13;;;3.07;;
13483;SDS011;6814;57.786;12.080;2023-09-30T09:44:26;15.40;;;3.10;;
13483;SDS011;6814;57.786;12.080;2023-09-30T09:46:53;12.77;;;3.73;;
13483;SDS011;6814;57.786;12.080;2023-09-30T09:49:20;11.00;;;3.47;;
13483;SDS011;6814;57.786;12.080;2023-09-30T09:51:47;13.43;;;3.83;;
13483;SDS011;6814;57.786;12.080;2023-09-30T09:54:14;15.47;;;4.53;;
13483;SDS011;6814;57.786;12.080;2023-09-30T09:56:42;15.07;;;3.63;;
13483;SDS011;6814;57.786;12.080;2023-09-30T09:59:10;13.60;;;4.27;;
13483;SDS011;6814;57.786;12.080;2023-09-30T10:01:37;16.17;;;3.23;;
13483;SDS011;6814;57.786;12.080;2023-09-30T10:04:05;16.47;;;3.97;;
13483;SDS011;6814;57.786;12.080;2023-09-30T10:06:32;14.03;;;3.87;;
13483;SDS011;6814;57.786;12.080;2023-09-30T10:09:03;16.90;;;3.97;;
13483;SDS011;6814;57.786;12.080;2023-09-30T10:11:31;16.10;;;4.10;;
13483;SDS011;6814;57.786;12.080;2023-09-30T10:13:59;14.27;;;4.70;;
13483;SDS011;6814;57.786;12.080;2023-09-30T10:19:13;15.33;;;4.70;;
13483;SDS011;6814;57.786;12.080;2023-09-30T10:21:40;20.57;;;4.10;;
13483;SDS011;6814;57.786;12.080;2023-09-30T10:24:30;13.27;;;3.73;;
13483;SDS011;6814;57.786;12.080;2023-09-30T10:29:42;14.20;;;3.93;;
13483;SDS011;6814;57.786;12.080;2023-09-30T10:32:10;11.97;;;3.53;;
13483;SDS011;6814;57.786;12.080;2023-09-30T10:34:37;14.07;;;4.27;;
13483;SDS011;6814;57.786;12.080;2023-09-30T10:39:55;13.33;;;3.50;;
13483;SDS011;6814;57.786;12.080;2023-09-30T10:45:14;6.63;;;2.87;;
13483;SDS011;6814;57.786;12.080;2023-09-30T10:47:58;19.50;;;4.20;;
13483;SDS011;6814;57.786;12.080;2023-09-30T10:50:51;15.90;;;3.63;;
13483;SDS011;6814;57.786;12.080;2023-09-30T10:53:19;17.20;;;4.13;;
13483;SDS011;6814;57.786;12.080;2023-09-30T10:55:46;16.90;;;4.30;;
13483;SDS011;6814;57.786;12.080;2023-09-30T10:58:13;16.53;;;4.13;;
13483;SDS011;6814;57.786;12.080;2023-09-30T11:00:50;17.07;;;4.33;;
13483;SDS011;6814;57.786;12.080;2023-09-30T11:03:19;13.20;;;3.60;;
13483;SDS011;6814;57.786;12.080;2023-09-30T11:05:47;15.63;;;4.73;;
13483;SDS011;6814;57.786;12.080;2023-09-30T11:08:13;20.83;;;4.97;;
13483;SDS011;6814;57.786;12.080;2023-09-30T11:10:46;16.87;;;4.83;;
13483;SDS011;6814;57.786;12.080;2023-09-30T11:13:13;19.00;;;4.90;;
13483;SDS011;6814;57.786;12.080;2023-09-30T11:15:40;12.60;;;3.73;;
13483;SDS011;6814;57.786;12.080;2023-09-30T11:18:15;21.73;;;4.73;;
13483;SDS011;6814;57.786;12.080;2023-09-30T11:20:42;16.30;;;4.27;;
13483;SDS011;6814;57.786;12.080;2023-09-30T11:23:09;18.70;;;3.93;;
13483;SDS011;6814;57.786;12.080;2023-09-30T11:25:39;18.30;;;4.10;;
13483;SDS011;6814;57.786;12.080;2023-09-30T11:28:13;15.60;;;4.13;;
13483;SDS011;6814;57.786;12.080;2023-09-30T11:30:52;15.43;;;3.93;;
13483;SDS011;6814;57.786;12.080;2023-09-30T11:33:20;12.20;;;3.27;;
13483;SDS011;6814;57.786;12.080;2023-09-30T11:35:55;16.53;;;4.30;;
13483;SDS011;6814;57.786;12.080;2023-09-30T11:38:23;12.87;;;3.60;;
13483;SDS011;6814;57.786;12.080;2023-09-30T11:40:59;16.47;;;3.40;;
13483;SDS011;6814;57.786;12.080;2023-09-30T11:43:27;14.40;;;3.63;;
13483;SDS011;6814;57.786;12.080;2023-09-30T11:46:03;14.47;;;3.53;;
13483;SDS011;6814;57.786;12.080;2023-09-30T11:48:31;10.40;;;3.50;;
13483;SDS011;6814;57.786;12.080;2023-09-30T11:50:58;13.30;;;4.23;;
13483;SDS011;6814;57.786;12.080;2023-09-30T11:53:25;14.30;;;3.47;;
13483;SDS011;6814;57.786;12.080;2023-09-30T11:55:52;11.80;;;3.50;;
13483;SDS011;6814;57.786;12.080;2023-09-30T11:58:21;12.17;;;3.70;;
13483;SDS011;6814;57.786;12.080;2023-09-30T12:00:52;12.97;;;3.40;;
13483;SDS011;6814;57.786;12.080;2023-09-30T12:03:19;12.93;;;3.83;;
13483;SDS011;6814;57.786;12.080;2023-09-30T12:05:48;16.50;;;5.07;;
13483;SDS011;6814;57.786;12.080;2023-09-30T12:08:17;12.30;;;4.40;;
13483;SDS011;6814;57.786;12.080;2023-09-30T12:10:46;12.67;;;3.87;;
13483;SDS011;6814;57.786;12.080;2023-09-30T12:13:21;12.43;;;3.60;;
13483;SDS011;6814;57.786;12.080;2023-09-30T12:15:48;16.03;;;3.73;;
13483;SDS011;6814;57.786;12.080;2023-09-30T12:18:18;13.13;;;3.60;;
13483;SDS011;6814;57.786;12.080;2023-09-30T12:20:50;16.70;;;4.93;;
13483;SDS011;6814;57.786;12.080;2023-09-30T12:23:17;15.07;;;4.07;;
13483;SDS011;6814;57.786;12.080;2023-09-30T12:25:45;12.07;;;4.53;;
13483;SDS011;6814;57.786;12.080;2023-09-30T12:28:12;14.33;;;3.83;;
13483;SDS011;6814;57.786;12.080;2023-09-30T12:30:39;12.97;;;4.17;;
13483;SDS011;6814;57.786;12.080;2023-09-30T12:33:05;18.17;;;4.20;;
13483;SDS011;6814;57.786;12.080;2023-09-30T12:35:32;19.27;;;3.97;;
13483;SDS011;6814;57.786;12.080;2023-09-30T12:37:59;20.93;;;4.50;;
13483;SDS011;6814;57.786;12.080;2023-09-30T12:40:26;15.83;;;4.47;;
13483;SDS011;6814;57.786;12.080;2023-09-30T12:42:53;12.60;;;4.33;;
13483;SDS011;6814;57.786;12.080;2023-09-30T12:45:19;13.80;;;5.00;;
13483;SDS011;6814;57.786;12.080;2023-09-30T12:47:46;11.87;;;3.67;;
13483;SDS011;6814;57.786;12.080;2023-09-30T12:50:13;11.67;;;3.20;;
13483;SDS011;6814;57.786;12.080;2023-09-30T12:52:39;12.07;;;3.17;;
13483;SDS011;6814;57.786;12.080;2023-09-30T12:55:07;15.13;;;4.00;;
13483;SDS011;6814;57.786;12.080;2023-09-30T12:57:34;12.87;;;3.80;;
13483;SDS011;6814;57.786;12.080;2023-09-30T13:00:00;13.30;;;4.00;;
13483;SDS011;6814;57.786;12.080;2023-09-30T13:02:27;12.50;;;3.70;;
13483;SDS011;6814;57.786;12.080;2023-09-30T13:04:54;15.07;;;4.73;;
13483;SDS011;6814;57.786;12.080;2023-09-30T13:07:20;12.30;;;3.40;;
13483;SDS011;6814;57.786;12.080;2023-09-30T13:09:47;11.50;;;3.37;;
13483;SDS011;6814;57.786;12.080;2023-09-30T13:12:14;14.60;;;3.80;;
13483;SDS011;6814;57.786;12.080;2023-09-30T13:14:41;12.67;;;3.40;;
13483;SDS011;6814;57.786;12.080;2023-09-30T13:17:08;13.60;;;3.93;;
13483;SDS011;6814;57.786;12.080;2023-09-30T13:19:37;10.93;;;3.10;;
13483;SDS011;6814;57.786;12.080;2023-09-30T13:22:04;12.20;;;3.80;;
13483;SDS011;6814;57.786;12.080;2023-09-30T13:24:32;11.60;;;3.70;;
13483;SDS011;6814;57.786;12.080;2023-09-30T13:27:02;14.03;;;4.77;;
13483;SDS011;6814;57.786;12.080;2023-09-30T13:29:30;17.70;;;4.80;;
13483;SDS011;6814;57.786;12.080;2023-09-30T13:31:57;15.60;;;3.87;;
13483;SDS011;6814;57.786;12.080;2023-09-30T13:34:23;14.63;;;4.40;;
13483;SDS011;6814;57.786;12.080;2023-09-30T13:36:50;12.07;;;3.70;;
13483;SDS011;6814;57.786;12.080;2023-09-30T13:39:16;12.67;;;3.50;;
13483;SDS011;6814;57.786;12.080;2023-09-30T13:41:43;19.90;;;4.27;;
13483;SDS011;6814;57.786;12.080;2023-09-30T13:44:10;15.27;;;5.00;;
13483;SDS011;6814;57.786;12.080;2023-09-30T13:46:38;14.73;;;3.63;;
13483;SDS011;6814;57.786;12.080;2023-09-30T13:49:05;15.63;;;3.37;;
13483;SDS011;6814;57.786;12.080;2023-09-30T13:51:32;14.40;;;3.87;;
13483;SDS011;6814;57.786;12.080;2023-09-30T13:53:58;13.47;;;3.23;;
13483;SDS011;6814;57.786;12.080;2023-09-30T13:56:24;14.20;;;3.30;;
13483;SDS011;6814;57.786;12.080;2023-09-30T13:58:52;12.43;;;3.40;;
13483;SDS011;6814;57.786;12.080;2023-09-30T14:01:19;9.53;;;3.30;;
13483;SDS011;6814;57.786;12.080;2023-09-30T14:03:47;16.80;;;4.23;;
13483;SDS011;6814;57.786;12.080;2023-09-30T14:06:13;13.17;;;3.27;;
13483;SDS011;6814;57.786;12.080;2023-09-30T14:08:40;14.13;;;4.03;;
13483;SDS011;6814;57.786;12.080;2023-09-30T14:11:07;11.17;;;3.23;;
13483;SDS011;6814;57.786;12.080;2023-09-30T14:13:34;10.97;;;2.60;;
13483;SDS011;6814;57.786;12.080;2023-09-30T14:16:00;10.07;;;2.73;;
13483;SDS011;6814;57.786;12.080;2023-09-30T14:18:27;13.50;;;3.53;;
13483;SDS011;6814;57.786;12.080;2023-09-30T14:20:54;10.70;;;2.87;;
13483;SDS011;6814;57.786;12.080;2023-09-30T14:23:21;13.30;;;3.90;;
13483;SDS011;6814;57.786;12.080;2023-09-30T14:25:48;11.83;;;3.30;;
13483;SDS011;6814;57.786;12.080;2023-09-30T14:28:15;14.13;;;3.40;;
13483;SDS011;6814;57.786;12.080;2023-09-30T14:30:41;18.07;;;4.10;;
13483;SDS011;6814;57.786;12.080;2023-09-30T14:33:09;11.53;;;3.97;;
13483;SDS011;6814;57.786;12.080;2023-09-30T14:35:35;12.73;;;3.83;;
13483;SDS011;6814;57.786;12.080;2023-09-30T14:38:03;16.77;;;4.00;;
13483;SDS011;6814;57.786;12.080;2023-09-30T14:40:30;16.93;;;4.03;;
13483;SDS011;6814;57.786;12.080;2023-09-30T14:42:56;16.57;;;4.33;;
13483;SDS011;6814;57.786;12.080;2023-09-30T14:45:23;11.63;;;3.57;;
13483;SDS011;6814;57.786;12.080;2023-09-30T14:47:49;13.73;;;3.77;;
13483;SDS011;6814;57.786;12.080;2023-09-30T14:50:15;16.30;;;3.50;;